createdAt,value
2018-09-05T00:01:33.136Z,97.30
2018-09-05T00:04:02.607Z,97.30
2018-09-05T00:06:31.272Z,97.30
2018-09-05T00:09:01.692Z,97.30
2018-09-05T00:11:30.382Z,97.40
2018-09-05T00:14:01.183Z,97.80
2018-09-05T00:16:30.012Z,98.10
2018-09-05T00:18:59.851Z,98.20
2018-09-05T00:21:28.569Z,98.30
2018-09-05T00:23:57.583Z,98.50
2018-09-05T00:26:26.385Z,98.60
2018-09-05T00:28:55.143Z,98.70
2018-09-05T00:31:23.827Z,98.90
2018-09-05T00:33:52.666Z,98.60
2018-09-05T00:36:21.469Z,98.70
2018-09-05T00:38:50.399Z,99.20
2018-09-05T00:41:19.058Z,99.40
2018-09-05T00:43:49.074Z,99.30
2018-09-05T00:46:17.877Z,98.20
2018-09-05T00:48:46.630Z,98.90
2018-09-05T00:51:15.330Z,98.90
2018-09-05T00:53:44.221Z,98.70
2018-09-05T00:56:12.967Z,98.60
2018-09-05T00:58:41.645Z,98.80
2018-09-05T01:01:10.571Z,98.80
2018-09-05T01:03:41.395Z,98.80
2018-09-05T01:06:10.239Z,98.90
2018-09-05T01:08:39.223Z,98.90
2018-09-05T01:11:07.911Z,98.90
2018-09-05T01:13:36.646Z,98.90
2018-09-05T01:16:05.469Z,98.90
2018-09-05T01:18:34.282Z,98.90
2018-09-05T01:21:03.135Z,98.50
2018-09-05T01:23:31.865Z,98.40
2018-09-05T01:26:00.547Z,98.50
2018-09-05T01:28:29.229Z,98.50
2018-09-05T01:30:58.081Z,98.40
2018-09-05T01:33:26.828Z,98.20
2018-09-05T01:36:27.047Z,98.40
2018-09-05T01:38:55.652Z,98.50
2018-09-05T01:41:24.424Z,98.50
2018-09-05T01:43:53.262Z,98.40
2018-09-05T01:46:21.914Z,98.40
2018-09-05T01:48:50.632Z,98.70
2018-09-05T01:51:19.366Z,98.40
2018-09-05T01:53:48.054Z,98.40
2018-09-05T01:56:16.867Z,98.50
2018-09-05T01:58:47.833Z,98.50
2018-09-05T02:01:18.886Z,99.10
2018-09-05T02:03:47.585Z,98.50
2018-09-05T02:06:16.462Z,98.80
2018-09-05T02:08:45.183Z,98.90
2018-09-05T02:11:18.947Z,98.90
2018-09-05T02:13:49.223Z,99.20
2018-09-05T02:16:17.947Z,98.40
2018-09-05T02:18:46.762Z,99.40
2018-09-05T02:21:15.880Z,99.50
2018-09-05T02:23:44.626Z,99.50
2018-09-05T02:26:13.364Z,99.60
2018-09-05T02:28:42.178Z,99.60
2018-09-05T02:31:11.080Z,99.70
2018-09-05T02:33:39.870Z,99.70
2018-09-05T02:36:08.501Z,99.60
2018-09-05T02:38:37.328Z,99.20
2018-09-05T02:41:06.042Z,98.80
2018-09-05T02:43:39.772Z,98.80
2018-09-05T02:46:08.467Z,99.00
2018-09-05T02:48:38.310Z,98.80
2018-09-05T02:51:07.191Z,98.80
2018-09-05T02:53:35.954Z,98.80
2018-09-05T02:56:04.659Z,98.80
2018-09-05T02:58:36.268Z,98.80
2018-09-05T03:01:04.947Z,98.80
2018-09-05T03:03:33.662Z,98.80
2018-09-05T03:06:02.323Z,98.70
2018-09-05T03:08:31.078Z,98.70
2018-09-05T03:10:59.775Z,98.50
2018-09-05T03:13:28.528Z,98.40
2018-09-05T03:15:57.408Z,98.50
2018-09-05T03:18:26.196Z,98.50
2018-09-05T03:20:54.994Z,98.60
2018-09-05T03:23:23.812Z,98.30
2018-09-05T03:25:52.501Z,98.40
2018-09-05T03:28:21.212Z,98.40
2018-09-05T03:30:52.967Z,98.50
2018-09-05T03:33:21.754Z,98.50
2018-09-05T03:35:50.484Z,98.50
2018-09-05T03:38:19.299Z,98.40
2018-09-05T03:40:48.231Z,98.40
2018-09-05T03:43:16.919Z,98.40
2018-09-05T03:45:45.514Z,98.20
2018-09-05T03:48:14.325Z,98.20
2018-09-05T03:50:43.016Z,98.20
2018-09-05T03:53:11.770Z,98.00
2018-09-05T03:55:40.425Z,97.90
2018-09-05T03:58:09.113Z,97.70
2018-09-05T04:00:39.584Z,97.40
2018-09-05T04:03:08.270Z,97.60
2018-09-05T04:05:37.119Z,97.40
2018-09-05T04:08:05.744Z,97.60
2018-09-05T04:10:35.306Z,97.50
2018-09-05T04:13:03.989Z,97.50
2018-09-05T04:15:32.661Z,97.60
2018-09-05T04:18:01.345Z,97.70
2018-09-05T04:20:29.946Z,97.80
2018-09-05T04:22:58.625Z,97.70
2018-09-05T04:25:27.351Z,97.50
2018-09-05T04:27:56.037Z,97.40
2018-09-05T04:30:24.907Z,97.20
2018-09-05T04:32:54.391Z,97.10
2018-09-05T04:35:24.001Z,96.90
2018-09-05T04:37:52.806Z,96.80
2018-09-05T04:40:21.589Z,97.30
2018-09-05T04:42:52.582Z,97.40
2018-09-05T04:45:21.326Z,97.50
2018-09-05T04:47:50.068Z,97.60
2018-09-05T04:50:19.458Z,97.70
2018-09-05T04:52:48.151Z,98.20
2018-09-05T04:55:19.210Z,97.80
2018-09-05T04:57:47.902Z,97.80
2018-09-05T05:00:19.590Z,97.80
2018-09-05T05:04:17.869Z,97.80
2018-09-05T05:06:46.541Z,98.00
2018-09-05T05:09:15.132Z,97.90
2018-09-05T05:11:43.964Z,98.00
2018-09-05T05:14:14.449Z,98.10
2018-09-05T05:16:43.135Z,98.20
2018-09-05T05:19:11.940Z,97.70
2018-09-05T05:21:40.711Z,98.50
2018-09-05T05:24:09.446Z,98.20
2018-09-05T05:26:38.219Z,98.10
2018-09-05T05:29:06.987Z,97.80
2018-09-05T05:31:35.659Z,97.30
2018-09-05T05:34:04.380Z,96.80
2018-09-05T05:36:33.448Z,96.20
2018-09-05T05:39:02.065Z,96.10
2018-09-05T05:41:30.864Z,96.10
2018-09-05T05:43:59.603Z,96.10
2018-09-05T05:46:28.418Z,95.90
2018-09-05T05:48:57.067Z,95.70
2018-09-05T05:51:25.688Z,95.50
2018-09-05T05:53:54.393Z,95.40
2018-09-05T05:56:27.777Z,95.30
2018-09-05T05:58:57.398Z,95.60
2018-09-05T06:01:26.578Z,95.50
2018-09-05T06:03:55.475Z,95.40
2018-09-05T06:06:24.336Z,95.60
2018-09-05T06:08:52.914Z,96.20
2018-09-05T06:11:30.548Z,95.40
2018-09-05T06:14:03.165Z,95.20
2018-09-05T06:16:34.503Z,95.20
2018-09-05T06:19:03.364Z,95.50
2018-09-05T06:21:37.894Z,95.80
2018-09-05T06:24:13.577Z,95.90
2018-09-05T06:26:48.785Z,96.00
2018-09-05T06:29:21.870Z,96.20
2018-09-05T06:31:50.609Z,96.20
2018-09-05T06:34:19.465Z,96.30
2018-09-05T06:36:48.241Z,96.30
2018-09-05T06:39:17.015Z,96.40
2018-09-05T06:41:45.811Z,96.10
2018-09-05T06:44:14.675Z,96.00
2018-09-05T06:46:43.378Z,95.70
2018-09-05T06:49:12.094Z,95.50
2018-09-05T06:51:40.864Z,95.40
2018-09-05T06:54:09.699Z,95.10
2018-09-05T06:56:38.376Z,95.00
2018-09-05T06:59:07.088Z,95.00
2018-09-05T07:01:35.764Z,94.60
2018-09-05T07:04:04.673Z,94.30
2018-09-05T07:06:33.895Z,94.00
2018-09-05T07:09:02.651Z,93.80
2018-09-05T07:11:31.512Z,93.30
2018-09-05T07:14:00.204Z,94.20
2018-09-05T07:16:31.371Z,94.40
2018-09-05T07:19:00.226Z,94.30
2018-09-05T07:21:29.319Z,94.50
2018-09-05T07:23:58.046Z,94.10
2018-09-05T07:26:27.099Z,94.00
2018-09-05T07:28:56.016Z,94.00
2018-09-05T07:31:24.772Z,93.90
2018-09-05T07:33:54.103Z,93.70
2018-09-05T07:36:22.965Z,93.80
2018-09-05T07:38:53.170Z,93.90
2018-09-05T07:41:22.332Z,93.80
2018-09-05T07:43:51.090Z,93.80
2018-09-05T07:46:20.253Z,92.70
2018-09-05T07:48:49.237Z,93.10
2018-09-05T07:51:21.097Z,92.90
2018-09-05T07:53:50.254Z,92.10
2018-09-05T07:56:19.312Z,92.00
2018-09-05T07:58:48.244Z,92.10
2018-09-05T08:01:17.161Z,91.90
2018-09-05T08:03:46.053Z,90.90
2018-09-05T08:06:14.818Z,91.70
2018-09-05T08:08:43.616Z,91.60
2018-09-05T08:11:12.563Z,91.60
2018-09-05T08:13:48.141Z,91.40
2018-09-05T08:16:26.886Z,91.70
2018-09-05T08:19:00.614Z,91.60
2018-09-05T08:21:29.592Z,91.50
2018-09-05T08:23:58.260Z,91.40
2018-09-05T08:26:27.439Z,91.40
2018-09-05T08:28:56.152Z,91.40
2018-09-05T08:31:26.328Z,91.90
2018-09-05T08:33:55.068Z,91.60
2018-09-05T08:36:30.332Z,91.10
2018-09-05T08:39:05.358Z,91.00
2018-09-05T08:41:40.131Z,91.40
2018-09-05T08:44:08.905Z,91.50
2018-09-05T08:46:37.539Z,91.70
2018-09-05T08:49:06.407Z,91.50
2018-09-05T08:51:35.161Z,91.60
2018-09-05T08:54:03.927Z,91.30
2018-09-05T08:56:32.757Z,91.00
2018-09-05T08:59:01.624Z,91.40
2018-09-05T09:01:30.356Z,91.10
2018-09-05T09:03:59.178Z,91.60
2018-09-05T09:06:28.152Z,91.70
2018-09-05T09:08:59.076Z,91.50
2018-09-05T09:11:28.052Z,91.10
2018-09-05T09:13:56.994Z,91.00
2018-09-05T09:16:25.705Z,90.80
2018-09-05T09:25:20.027Z,90.50
2018-09-05T09:27:50.627Z,90.30
2018-09-05T09:30:19.386Z,90.10
2018-09-05T09:32:48.160Z,88.50
2018-09-05T09:35:19.223Z,89.10
2018-09-05T09:37:47.837Z,88.80
2018-09-05T09:40:17.196Z,90.00
2018-09-05T09:42:45.971Z,88.00
2018-09-05T09:45:14.757Z,87.90
2018-09-05T09:47:49.425Z,87.00
2018-09-05T09:50:19.501Z,86.00
2018-09-05T09:52:48.202Z,84.80
2018-09-05T09:55:24.044Z,83.80
2018-09-05T09:58:03.188Z,82.20
2018-09-05T10:00:44.271Z,81.70
2018-09-05T10:03:18.671Z,82.40
2018-09-05T10:05:52.727Z,82.40
2018-09-05T10:08:26.579Z,81.50
2018-09-05T10:11:17.195Z,81.20
2018-09-05T10:13:53.475Z,80.60
2018-09-05T10:16:27.542Z,80.70
2018-09-05T10:18:56.555Z,81.80
2018-09-05T10:21:25.242Z,81.00
2018-09-05T10:23:53.995Z,80.90
2018-09-05T10:26:27.928Z,81.20
2018-09-05T10:28:56.617Z,80.20
2018-09-05T10:31:25.699Z,80.20
2018-09-05T10:33:54.619Z,79.40
2018-09-05T10:36:25.130Z,78.40
2018-09-05T10:38:53.998Z,75.80
2018-09-05T10:41:23.508Z,76.20
2018-09-05T10:43:52.310Z,77.70
2018-09-05T10:46:22.207Z,77.20
2018-09-05T10:48:50.938Z,75.30
2018-09-05T10:51:23.906Z,70.20
2018-09-05T10:53:52.698Z,66.90
2018-09-05T10:56:21.521Z,64.20
2018-09-05T10:58:50.409Z,63.00
2018-09-05T11:01:19.219Z,60.90
2018-09-05T11:03:48.004Z,60.40
2018-09-05T11:06:17.689Z,60.20
2018-09-05T11:08:46.308Z,59.60
2018-09-05T11:11:15.113Z,61.10
2018-09-05T11:13:43.842Z,61.60
2018-09-05T11:16:12.519Z,61.70
2018-09-05T11:18:41.265Z,60.40
2018-09-05T11:21:27.157Z,59.50
2018-09-05T11:23:55.951Z,58.90
2018-09-05T11:26:24.715Z,58.10
2018-09-05T11:28:53.444Z,57.60
2018-09-05T11:31:22.197Z,57.20
2018-09-05T11:33:53.004Z,56.10
2018-09-05T11:36:21.889Z,57.20
2018-09-05T11:38:51.150Z,56.90
2018-09-05T11:41:20.062Z,57.60
2018-09-05T11:43:49.153Z,58.00
2018-09-05T11:46:17.978Z,57.40
2018-09-05T11:48:49.817Z,56.80
2018-09-05T11:51:20.241Z,56.70
2018-09-05T11:53:49.139Z,56.40
2018-09-05T11:56:18.671Z,54.60
2018-09-05T11:58:47.618Z,55.00
2018-09-05T12:01:16.413Z,54.60
2018-09-05T12:03:45.232Z,54.00
2018-09-05T12:06:17.200Z,53.50
2018-09-05T12:08:46.010Z,52.30
2018-09-05T12:11:14.962Z,51.20
2018-09-05T12:13:43.738Z,50.70
2018-09-05T12:16:18.723Z,51.00
2018-09-05T12:18:47.599Z,51.10
2018-09-05T12:21:16.438Z,51.30
2018-09-05T12:23:55.493Z,51.60
2018-09-05T12:26:24.684Z,50.80
2018-09-05T12:28:53.423Z,49.50
2018-09-05T12:31:22.354Z,48.30
2018-09-05T12:33:51.176Z,47.70
2018-09-05T12:36:19.887Z,47.10
2018-09-05T12:38:48.583Z,44.90
2018-09-05T12:41:17.275Z,50.80
2018-09-05T12:43:46.152Z,54.70
2018-09-05T12:46:14.853Z,56.80
2018-09-05T12:48:43.608Z,55.50
2018-09-05T12:51:12.856Z,54.60
2018-09-05T12:53:41.667Z,55.50
2018-09-05T12:56:10.447Z,57.60
2018-09-05T12:58:39.543Z,57.40
2018-09-05T13:01:08.592Z,60.50
2018-09-05T13:03:37.370Z,60.80
2018-09-05T13:06:06.138Z,58.80
2018-09-05T13:08:34.918Z,57.30
2018-09-05T13:11:03.579Z,57.20
2018-09-05T13:13:32.236Z,57.10
2018-09-05T13:16:01.060Z,57.00
2018-09-05T13:18:35.421Z,58.30
2018-09-05T13:21:04.548Z,57.90
2018-09-05T13:23:33.261Z,56.50
2018-09-05T13:26:04.114Z,55.00
2018-09-05T13:28:32.743Z,55.40
2018-09-05T13:31:02.438Z,55.20
2018-09-05T13:33:31.203Z,55.40
2018-09-05T13:35:59.937Z,53.90
2018-09-05T13:38:29.007Z,53.60
2018-09-05T13:40:59.967Z,53.80
2018-09-05T13:43:28.622Z,54.40
2018-09-05T13:45:57.382Z,51.70
2018-09-05T13:48:26.176Z,48.60
2018-09-05T13:50:55.051Z,46.30
2018-09-05T13:53:23.795Z,45.40
2018-09-05T13:55:52.524Z,42.60
2018-09-05T13:58:21.228Z,41.60
2018-09-05T14:00:49.935Z,42.60
2018-09-05T14:03:18.747Z,40.80
2018-09-05T14:05:47.369Z,40.00
2018-09-05T14:08:16.096Z,39.60
2018-09-05T14:10:44.787Z,39.30
2018-09-05T14:13:14.325Z,37.80
2018-09-05T14:15:42.949Z,37.30
2018-09-05T14:18:12.821Z,37.40
2018-09-05T14:20:41.703Z,38.80
2018-09-05T14:23:10.483Z,41.00
2018-09-05T14:25:39.326Z,42.70
2018-09-05T14:28:08.782Z,43.20
2018-09-05T14:30:38.570Z,44.40
2018-09-05T14:33:07.271Z,44.80
2018-09-05T14:35:35.851Z,45.30
2018-09-05T14:38:04.681Z,47.30
2018-09-05T14:40:35.193Z,47.40
2018-09-05T14:43:03.844Z,48.10
2018-09-05T14:45:32.587Z,49.30
2018-09-05T14:48:01.283Z,51.00
2018-09-05T14:50:30.086Z,49.70
2018-09-05T14:52:58.837Z,50.00
2018-09-05T14:55:27.656Z,50.60
2018-09-05T14:57:56.811Z,51.40
2018-09-05T15:00:25.529Z,51.60
2018-09-05T15:02:56.332Z,51.30
2018-09-05T15:05:25.323Z,51.20
2018-09-05T15:07:57.947Z,50.80
2018-09-05T15:10:26.806Z,51.50
2018-09-05T15:12:55.647Z,51.60
2018-09-05T15:15:24.328Z,51.50
2018-09-05T15:17:53.109Z,51.90
2018-09-05T15:20:21.801Z,51.90
2018-09-05T15:22:52.135Z,51.80
2018-09-05T15:25:20.930Z,51.50
2018-09-05T15:27:49.572Z,52.20
2018-09-05T15:30:18.303Z,52.40
2018-09-05T15:32:46.986Z,52.40
2018-09-05T15:35:15.746Z,52.60
2018-09-05T15:37:45.740Z,53.20
2018-09-05T15:40:14.363Z,53.30
2018-09-05T15:42:43.069Z,53.20
2018-09-05T15:45:11.746Z,53.20
2018-09-05T15:47:40.479Z,53.30
2018-09-05T15:50:09.356Z,53.70
2018-09-05T15:52:38.015Z,53.40
2018-09-05T15:55:06.962Z,52.90
2018-09-05T15:57:35.843Z,53.40
2018-09-05T16:00:14.760Z,53.40
2018-09-05T16:02:53.422Z,53.30
2018-09-05T16:05:30.842Z,53.40
2018-09-05T16:08:04.288Z,53.50
2018-09-05T16:10:32.980Z,53.80
2018-09-05T16:13:01.763Z,54.20
2018-09-05T16:15:30.769Z,53.80
2018-09-05T16:17:59.505Z,53.80
2018-09-05T16:20:30.408Z,54.40
2018-09-05T16:22:59.398Z,54.50
2018-09-05T16:25:28.326Z,55.20
2018-09-05T16:27:59.519Z,56.00
2018-09-05T16:30:28.259Z,55.90
2018-09-05T16:32:56.954Z,56.50
2018-09-05T16:35:25.819Z,56.40
2018-09-05T16:37:54.551Z,57.10
2018-09-05T16:40:23.242Z,57.50
2018-09-05T16:42:52.266Z,59.40
2018-09-05T16:45:21.185Z,59.50
2018-09-05T16:47:50.040Z,60.40
2018-09-05T16:51:48.155Z,61.70
2018-09-05T16:54:16.994Z,59.40
2018-09-05T16:56:45.801Z,62.60
2018-09-05T16:59:14.590Z,63.30
2018-09-05T17:01:43.382Z,64.30
2018-09-05T17:04:12.216Z,64.60
2018-09-05T17:06:41.189Z,67.30
2018-09-05T17:09:11.432Z,67.70
2018-09-05T17:11:40.413Z,68.30
2018-09-05T17:14:09.293Z,68.40
2018-09-05T17:16:38.032Z,68.70
2018-09-05T17:19:06.912Z,68.80
2018-09-05T17:21:35.758Z,70.30
2018-09-05T17:24:04.730Z,70.90
2018-09-05T17:26:33.603Z,71.10
2018-09-05T17:29:02.505Z,71.40
2018-09-05T17:31:31.282Z,71.80
2018-09-05T17:34:30.282Z,71.90
2018-09-05T17:37:00.808Z,73.10
2018-09-05T17:39:30.484Z,73.70
2018-09-05T17:41:59.584Z,74.60
2018-09-05T17:44:28.250Z,75.10
2018-09-05T17:46:57.454Z,75.80
2018-09-05T17:49:31.515Z,76.50
2018-09-05T17:52:01.211Z,77.40
2018-09-05T17:54:31.129Z,78.10
2018-09-05T17:57:04.695Z,78.40
2018-09-05T17:59:34.377Z,78.90
2018-09-05T18:02:03.282Z,78.90
2018-09-05T18:04:32.137Z,79.80
2018-09-05T18:07:00.960Z,80.20
2018-09-05T18:09:29.809Z,80.90
2018-09-05T18:11:58.532Z,80.60
2018-09-05T18:14:27.407Z,81.20
2018-09-05T18:16:57.136Z,81.60
2018-09-05T18:19:25.843Z,81.80
2018-09-05T18:21:54.649Z,82.10
2018-09-05T18:24:23.440Z,82.10
2018-09-05T18:26:52.362Z,82.20
2018-09-05T18:29:21.284Z,82.20
2018-09-05T18:31:50.566Z,83.10
2018-09-05T18:34:19.487Z,83.50
2018-09-05T18:36:48.319Z,83.90
2018-09-05T18:39:17.230Z,84.10
2018-09-05T18:41:45.973Z,85.40
2018-09-05T18:44:14.779Z,84.70
2018-09-05T18:46:43.706Z,84.40
2018-09-05T18:49:12.465Z,84.00
2018-09-05T18:51:41.109Z,85.00
2018-09-05T18:54:09.995Z,85.70
2018-09-05T18:56:38.837Z,85.90
2018-09-05T18:59:07.710Z,86.10
2018-09-05T19:01:38.316Z,86.10
2018-09-05T19:04:07.126Z,86.20
2018-09-05T19:06:36.026Z,86.00
2018-09-05T19:09:06.822Z,85.90
2018-09-05T19:11:38.831Z,85.80
2018-09-05T19:14:08.025Z,86.30
2018-09-05T19:16:36.798Z,86.60
2018-09-05T19:19:05.824Z,87.20
2018-09-05T19:21:34.765Z,87.40
2018-09-05T19:24:03.490Z,87.50
2018-09-05T19:26:33.423Z,87.50
2018-09-05T19:29:02.300Z,87.10
2018-09-05T19:31:31.355Z,86.40
2018-09-05T19:34:00.083Z,86.30
2018-09-05T19:36:28.774Z,86.50
2018-09-05T19:39:00.168Z,86.10
2018-09-05T19:41:28.817Z,86.40
2018-09-05T19:43:57.628Z,86.70
2018-09-05T19:46:26.314Z,86.70
2018-09-05T19:48:57.455Z,86.90
2018-09-05T19:51:26.154Z,86.90
2018-09-05T19:53:54.911Z,86.60
2018-09-05T19:56:23.631Z,86.30
2018-09-05T19:58:52.466Z,86.40
2018-09-05T20:01:21.276Z,86.90
2018-09-05T20:03:49.993Z,86.80
2018-09-05T20:06:18.639Z,86.10
2018-09-05T20:08:47.499Z,86.00
2018-09-05T20:11:16.076Z,86.40
2018-09-05T20:13:44.834Z,86.00
2018-09-05T20:16:13.909Z,86.70
2018-09-05T20:18:42.734Z,86.00
2018-09-05T20:21:11.610Z,86.10
2018-09-05T20:23:40.357Z,86.90
2018-09-05T20:26:10.355Z,87.40
2018-09-05T20:28:39.299Z,87.60
2018-09-05T20:31:08.031Z,87.60
2018-09-05T20:33:36.770Z,87.00
2018-09-05T20:36:05.877Z,86.20
2018-09-05T20:38:36.234Z,87.60
2018-09-05T20:41:04.973Z,88.00
2018-09-05T20:43:33.698Z,88.50
2018-09-05T20:46:02.375Z,89.10
2018-09-05T20:48:31.096Z,89.10
2018-09-05T20:51:00.933Z,90.20
2018-09-05T20:53:29.660Z,90.10
2018-09-05T20:55:58.420Z,90.20
2018-09-05T20:58:27.085Z,89.80
2018-09-05T21:00:55.773Z,90.00
2018-09-05T21:03:25.302Z,89.20
2018-09-05T21:05:53.990Z,89.20
2018-09-05T21:08:22.925Z,88.40
2018-09-05T21:10:51.782Z,88.30
2018-09-05T21:13:23.331Z,88.40
2018-09-05T21:15:52.287Z,88.40
2018-09-05T21:18:21.209Z,87.70
2018-09-05T21:20:50.215Z,89.00
2018-09-05T21:23:19.101Z,89.40
2018-09-05T21:25:48.568Z,89.80
2018-09-05T21:28:17.711Z,91.00
2018-09-05T21:30:46.759Z,90.00
2018-09-05T21:33:15.486Z,90.10
2018-09-05T21:35:44.300Z,89.80
2018-09-05T21:38:13.203Z,90.20
2018-09-05T21:40:41.895Z,90.40
2018-09-05T21:43:10.611Z,90.60
2018-09-05T21:45:39.523Z,90.40
2018-09-05T21:48:08.313Z,90.70
2018-09-05T21:50:37.393Z,90.70
2018-09-05T21:53:06.344Z,90.60
2018-09-05T21:55:35.436Z,90.50
2018-09-05T21:58:04.181Z,90.50
2018-09-05T22:00:33.087Z,90.30
2018-09-05T22:03:02.062Z,90.10
2018-09-05T22:05:30.945Z,90.20
2018-09-05T22:07:59.710Z,90.20
2018-09-05T22:10:28.503Z,89.70
2018-09-05T22:12:57.276Z,90.50
2018-09-05T22:15:26.015Z,90.70
2018-09-05T22:17:54.751Z,90.70
2018-09-05T22:20:23.507Z,90.80
2018-09-05T22:22:52.347Z,90.90
2018-09-05T22:25:21.051Z,91.20
2018-09-05T22:27:49.917Z,91.20
2018-09-05T22:30:18.610Z,91.20
2018-09-05T22:32:47.347Z,91.40
2018-09-05T22:35:16.086Z,90.90
2018-09-05T22:37:44.793Z,90.80
2018-09-05T22:40:13.670Z,91.40
2018-09-05T22:44:55.946Z,91.30
2018-09-05T22:47:35.711Z,90.90
2018-09-05T22:50:53.387Z,90.60
2018-09-05T22:55:45.664Z,90.60
2018-09-05T23:00:28.310Z,90.40
2018-09-05T23:03:08.122Z,90.60
2018-09-05T23:05:50.107Z,90.60
2018-09-05T23:08:31.400Z,90.50
2018-09-05T23:11:11.474Z,90.30
2018-09-05T23:13:51.136Z,90.40
2018-09-05T23:18:37.978Z,90.60
2018-09-05T23:21:17.788Z,90.60
2018-09-05T23:24:08.808Z,90.70
2018-09-05T23:26:37.579Z,90.70
2018-09-05T23:29:06.840Z,90.30
2018-09-05T23:31:35.528Z,90.50
2018-09-05T23:34:04.279Z,90.30
2018-09-05T23:36:33.118Z,90.60
2018-09-05T23:39:01.865Z,90.80
2018-09-05T23:41:30.777Z,90.80
2018-09-05T23:43:59.523Z,91.10
2018-09-05T23:46:28.195Z,91.10
2018-09-05T23:48:56.913Z,90.90
2018-09-05T23:51:25.602Z,90.90
2018-09-05T23:53:54.684Z,90.90
2018-09-05T23:56:23.459Z,91.30
2018-09-05T23:58:52.496Z,91.30
